Latest Weather Observations for Port Pirie Airport AWS

IDS60801

Issued at 2:41 pm CST Thursday 28 May 2020 (issued every 10 minutes, with the page automatically refreshed every 10 minutes)

About weather observations | Map of weather stations | Latest weather observations for SA | Other Formats
Station Details ID: 021139 Name: PORT PIRIE AERODROME AWS Lat: -33.24 Lon: 138.00 Height: 12.0 m
Data from the previous 72 hours. | See also: Recent months for locations in South Australia
Date/Time
CST
Temp
°C
App
Temp
°C
Dew
Point
°C
Rel
Hum
%
Delta-T
°C
Wind Press
QNH
hPa
Press
MSL
hPa
Rain since
9am
mm
Dir  Spd
km/h
Gust
km/h
Spd
kts
Gust
kts
28/02:30pm 16.9 14.1 7.0 52 4.9 WNW 11 15 6 8 1023.4 1023.3 0.0
28/02:00pm 17.3 14.5 7.1 51 5.1 WSW 11 17 6 9 1023.3 1023.2 0.0
28/01:30pm 17.1 13.8 6.3 49 5.3 W 13 24 7 13 1023.5 1023.4 0.0
28/01:00pm 17.0 14.2 8.4 57 4.4 WSW 13 20 7 11 1024.0 1023.9 0.0
28/12:30pm 16.2 13.7 8.4 60 3.9 W 11 17 6 9 1024.2 1024.2 0.0
28/12:00pm 16.5 14.1 10.1 66 3.4 W 13 19 7 10 1024.5 1024.5 0.0
28/11:30am 16.0 13.5 9.7 66 3.3 W 13 17 7 9 1024.7 1024.7 0.0
28/11:00am 15.7 13.3 11.5 76 2.3 NW 15 20 8 11 1024.9 1024.9 0.0
28/10:30am 15.3 13.0 11.7 79 1.9 NW 15 20 8 11 1025.2 1025.2 0.0
28/10:00am 14.9 12.5 11.3 79 1.9 WNW 15 20 8 11 1025.1 1025.1 0.0
28/09:30am 14.7 12.3 11.5 81 1.7 N 15 19 8 10 1024.8 1024.8 0.0
28/09:00am 14.0 12.1 10.6 80 1.8 N 11 15 6 8 1024.6 1024.6 0.0
28/08:30am 12.6 10.7 10.5 87 1.1 N 11 13 6 7 1024.4 1024.4 0.0
28/08:00am 11.8 9.3 9.7 87 1.1 N 13 15 7 8 1024.1 1024.1 0.0
28/07:30am 11.4 9.7 9.7 89 0.9 NNE 9 11 5 6 1023.7 1023.6 0.0
28/07:00am 12.1 10.6 10.5 90 0.8 N 9 11 5 6 1023.3 1023.2 0.0
28/06:30am 12.3 10.8 10.5 89 0.9 NNW 9 11 5 6 1022.9 1022.8 0.0
28/06:00am 12.0 9.9 9.9 87 1.1 NNW 11 13 6 7 1022.6 1022.5 0.0
28/05:30am 11.7 9.2 9.6 87 1.1 NNW 13 13 7 7 1022.3 1022.2 0.0
28/05:00am 11.3 9.5 9.6 89 0.9 N 9 13 5 7 1022.2 1022.1 0.0
28/04:30am 11.1 9.3 9.5 90 0.8 NNE 9 11 5 6 1022.0 1021.9 0.0
28/04:00am 11.2 10.4 9.6 90 0.8 NNE 4 7 2 4 1021.8 1021.7 0.0
28/03:30am 11.5 10.2 9.9 90 0.8 NNW 7 9 4 5 1021.8 1021.7 0.0
28/03:00am 11.8 9.8 10.2 90 0.8 NNW 11 13 6 7 1021.7 1021.6 0.0
28/02:30am 12.2 9.9 10.3 88 1.0 NNW 13 15 7 8 1021.7 1021.6 0.0
28/02:00am 11.7 9.6 9.6 87 1.1 N 11 13 6 7 1021.5 1021.4 0.0
28/01:30am 10.9 7.8 8.7 86 1.1 NNE 15 17 8 9 1021.4 1021.3 0.0
28/01:00am 10.5 7.9 7.7 83 1.3 NNE 11 15 6 8 1021.3 1021.2 0.0
28/12:30am 10.8 9.1 7.7 81 1.5 E 6 7 3 4 1021.2 1021.1 0.0
28/12:00am 11.0 8.9 8.2 83 1.4 ENE 9 13 5 7 1021.3 1021.2 0.0
 
Date/Time
CST
Temp
°C
App
Temp
°C
Dew
Point
°C
Rel
Hum
%
Delta-T
°C
Wind Press
QNH
hPa
Press
MSL
hPa
Rain since
9am
mm
Dir  Spd
km/h
Gust
km/h
Spd
kts
Gust
kts
27/11:30pm 10.8 9.0 7.9 82 1.4 E 7 9 4 5 1021.3 1021.2 0.0
27/11:00pm 11.0 9.3 7.5 79 1.7 ESE 6 7 3 4 1021.1 1021.0 0.0
27/10:30pm 11.7 11.1 7.6 76 2.0 CALM 0 0 0 0 1021.0 1020.9 0.0
27/10:00pm 12.6 12.2 8.1 74 2.2 CALM 0 0 0 0 1020.8 1020.7 0.0
27/09:30pm 12.8 11.1 8.3 74 2.2 ESE 7 7 4 4 1020.7 1020.6 0.0
27/09:00pm 12.9 10.7 7.8 71 2.5 SE 9 11 5 6 1020.6 1020.5 0.0
27/08:30pm 13.1 10.6 8.0 71 2.5 SSE 11 13 6 7 1020.4 1020.3 0.0
27/08:00pm 13.4 11.2 7.8 69 2.8 SSE 9 13 5 7 1020.4 1020.3 0.0
27/07:30pm 12.9 10.8 8.2 73 2.3 ENE 9 9 5 5 1020.1 1020.0 0.0
27/07:00pm 13.0 10.4 7.9 71 2.5 ENE 11 13 6 7 1019.9 1019.8 0.0
27/06:30pm 13.3 10.8 8.0 70 2.6 ENE 11 13 6 7 1019.7 1019.6 0.0
27/06:00pm 13.9 11.5 7.2 64 3.3 ENE 9 9 5 5 1019.4 1019.3 0.0
27/05:30pm 15.6 13.7 7.4 58 4.1 NE 7 7 4 4 1019.0 1018.9 0.0
27/05:00pm 16.4 14.1 7.3 55 4.5 N 9 11 5 6 1018.9 1018.8 0.0
27/04:30pm 17.8 14.6 6.7 48 5.5 N 13 17 7 9 1018.8 1018.7 0.0
27/04:00pm 18.2 14.4 5.8 44 6.1 NNW 15 20 8 11 1018.6 1018.5 0.0
27/03:30pm 18.2 14.0 5.8 44 6.1 N 17 20 9 11 1018.7 1018.6 0.0
27/03:00pm 18.3 14.1 5.8 44 6.1 NNW 17 20 9 11 1018.8 1018.7 0.0
27/02:30pm 18.2 14.1 6.1 45 5.9 NNW 17 22 9 12 1018.9 1018.8 0.0
27/02:00pm 17.9 13.6 5.2 43 6.1 NNW 17 20 9 11 1019.1 1019.0 0.0
27/01:30pm 17.8 12.6 5.7 45 5.9 NW 22 26 12 14 1019.4 1019.3 0.0
27/01:00pm 17.6 13.2 6.5 48 5.5 NNW 19 24 10 13 1019.7 1019.6 0.0
27/12:30pm 17.2 12.1 5.8 47 5.5 NNW 22 28 12 15 1020.1 1020.0 0.0
27/12:00pm 16.9 11.8 5.8 48 5.4 NNW 22 28 12 15 1020.5 1020.4 0.0
27/11:30am 16.8 11.3 6.0 49 5.2 NNW 24 30 13 16 1020.8 1020.7 0.0
27/11:00am 15.9 9.1 4.9 48 5.2 NNW 30 35 16 19 1021.4 1021.3 0.0
27/10:30am 15.8 9.9 5.7 51 4.8 N 26 33 14 18 1021.6 1021.5 0.0
27/10:00am 14.9 7.7 4.9 51 4.7 NNW 32 41 17 22 1021.6 1021.5 0.0
27/09:30am 14.6 7.9 5.4 54 4.3 N 30 41 16 22 1021.4 1021.3 0.0
27/09:00am 14.4 9.0 6.3 58 3.9 N 24 32 13 17 1021.2 1021.1 0.4
27/08:30am 13.1 7.7 6.2 63 3.3 N 24 32 13 17 1021.0 1020.9 0.4
27/08:00am 12.3 7.1 5.5 63 3.2 N 22 28 12 15 1020.9 1020.8 0.4
27/07:30am 12.5 6.9 5.2 61 3.4 N 24 32 13 17 1020.6 1020.5 0.4
27/07:00am 12.5 7.8 5.9 64 3.1 N 20 28 11 15 1020.2 1020.1 0.4
27/06:30am 11.8 7.2 5.7 66 2.8 N 19 22 10 12 1019.9 1019.8 0.4
27/06:00am 12.1 7.2 5.3 63 3.1 N 20 26 11 14 1019.6 1019.5 0.4
27/05:30am 11.5 7.4 6.0 69 2.6 N 17 20 9 11 1019.3 1019.2 0.4
27/05:00am 12.3 7.5 5.5 63 3.2 N 20 26 11 14 1019.0 1018.9 0.4
27/04:30am 12.3 7.4 5.2 62 3.3 N 20 26 11 14 1019.0 1018.9 0.4
27/04:00am 12.1 7.5 5.5 64 3.1 N 19 24 10 13 1018.8 1018.7 0.4
27/03:30am 12.4 7.2 5.3 62 3.3 N 22 28 12 15 1018.5 1018.4 0.4
27/03:00am 12.9 7.7 5.3 60 3.5 N 22 28 12 15 1018.7 1018.6 0.4
27/02:30am 12.8 7.7 5.9 63 3.2 N 22 28 12 15 1018.8 1018.7 0.4
27/02:00am 12.9 7.5 6.3 64 3.1 N 24 30 13 16 1018.9 1018.8 0.4
27/01:30am 12.7 7.8 7.0 68 2.7 N 22 28 12 15 1018.9 1018.8 0.4
27/01:00am 12.2 8.0 7.5 73 2.3 N 19 24 10 13 1019.0 1018.9 0.4
27/12:30am 12.2 8.0 7.5 73 2.3 NNW 19 24 10 13 1019.3 1019.2 0.2
27/12:00am 13.3 7.7 7.1 66 3.0 NNW 26 33 14 18 1019.4 1019.3 0.0
 
Date/Time
CST
Temp
°C
App
Temp
°C
Dew
Point
°C
Rel
Hum
%
Delta-T
°C
Wind Press
QNH
hPa
Press
MSL
hPa
Rain since
9am
mm
Dir  Spd
km/h
Gust
km/h
Spd
kts
Gust
kts
26/11:30pm 13.7 9.1 5.6 58 3.8 N 19 22 10 12 1019.3 1019.2 0.0
26/11:00pm 14.1 9.8 5.2 55 4.2 N 17 20 9 11 1019.4 1019.3 0.0
26/10:30pm 14.1 9.7 4.7 53 4.3 N 17 20 9 11 1019.3 1019.2 0.0
26/10:00pm 14.3 9.2 4.3 51 4.6 N 20 28 11 15 1019.2 1019.1 0.0
26/09:30pm 14.5 9.6 3.9 49 4.8 N 19 22 10 12 1019.1 1019.0 0.0
26/09:00pm 14.4 8.5 4.1 50 4.7 N 24 33 13 18 1019.0 1018.9 0.0
26/08:30pm 14.0 10.4 4.9 54 4.2 NNE 13 15 7 8 1018.9 1018.8 0.0
26/08:00pm 13.8 9.9 5.4 57 3.9 N 15 19 8 10 1018.8 1018.7 0.0
26/07:30pm 14.9 9.9 4.6 50 4.8 N 20 30 11 16 1018.5 1018.4 0.0
26/07:00pm 13.8 10.2 4.9 55 4.1 N 13 17 7 9 1018.4 1018.3 0.0
26/06:30pm 14.6 9.5 4.0 49 4.8 N 20 26 11 14 1017.9 1017.8 0.0
26/06:00pm 14.7 8.8 3.8 48 5.0 N 24 32 13 17 1017.4 1017.3 0.0
26/05:30pm 14.2 9.1 5.8 57 4.0 N 22 32 12 17 1017.0 1016.9 0.0
26/05:00pm 14.5 9.8 6.1 57 4.0 N 20 28 11 15 1016.7 1016.7 0.0
26/04:30pm 14.4 10.0 6.7 60 3.7 NNW 19 26 10 14 1016.7 1016.7 0.0
26/04:00pm 14.8 10.7 6.4 57 4.1 NNW 17 24 9 13 1016.8 1016.8 0.0
26/03:30pm 15.0 11.2 6.0 55 4.3 N 15 22 8 12 1016.5 1016.5 0.0
26/03:00pm 14.6 9.2 6.2 57 4.0 NNW 24 33 13 18 1017.2 1017.1 0.0
26/02:30pm 14.6 9.5 5.9 56 4.1 N 22 32 12 17 1017.3 1017.2 0.0
26/02:00pm 14.6 8.0 6.2 57 4.0 NNW 30 39 16 21 1017.8 1017.7 0.0
26/01:30pm 14.4 8.1 5.5 55 4.2 N 28 39 15 21 1017.8 1017.7 0.0
26/01:00pm 14.5 7.3 6.1 57 4.0 N 33 43 18 23 1018.2 1018.1 0.0
26/12:30pm 14.4 6.5 6.3 58 3.9 NNW 37 46 20 25 1018.9 1018.8 0.0
26/12:00pm 15.0 8.0 6.0 55 4.3 NNW 32 39 17 21 1019.4 1019.3 0.0
26/11:30am 14.7 9.1 5.2 53 4.5 NNW 24 32 13 17 1019.8 1019.7 0.0
26/11:00am 15.1 9.4 6.7 57 4.1 NNW 26 32 14 17 1020.0 1019.9 0.0
26/10:30am 15.6 9.1 4.9 49 5.0 N 28 37 15 20 1020.3 1020.2 0.0
26/10:00am 13.9 7.7 4.2 52 4.4 N 26 41 14 22 1020.5 1020.4 0.0
26/09:30am 13.7 7.2 4.6 54 4.2 N 28 37 15 20 1020.9 1020.8 0.0
26/09:00am 12.0 7.2 4.5 60 3.4 N 19 28 10 15 1021.1 1021.0 0.0
26/08:30am 11.7 7.5 5.8 67 2.7 N 17 24 9 13 1021.1 1021.0 0.0
26/08:00am 11.7 6.9 5.8 67 2.7 N 20 26 11 14 1021.0 1020.9 0.0
26/07:30am 10.2 6.6 5.0 70 2.3 NNW 13 20 7 11 1020.7 1020.6 0.0
26/07:00am 10.3 5.9 4.7 68 2.5 N 17 20 9 11 1020.4 1020.3 0.0
26/06:30am 10.6 6.5 4.5 66 2.7 N 15 17 8 9 1020.2 1020.1 0.0
26/06:00am 10.7 6.6 4.6 66 2.7 N 15 19 8 10 1020.4 1020.3 0.0
26/05:30am 10.7 5.9 4.4 65 2.8 N 19 24 10 13 1020.4 1020.3 0.0
26/05:00am 10.6 6.1 4.3 65 2.8 NNE 17 24 9 13 1020.3 1020.2 0.0
26/04:30am 10.7 5.3 4.6 66 2.7 N 22 26 12 14 1020.2 1020.1 0.0
26/04:00am 10.6 7.7 4.7 67 2.7 NE 9 15 5 8 1020.7 1020.6 0.0
26/03:30am 10.0 7.1 4.4 68 2.5 NNE 9 11 5 6 1020.8 1020.7 0.0
26/03:00am 9.9 6.5 4.1 67 2.6 N 11 13 6 7 1020.8 1020.7 0.0
26/02:30am 10.5 5.4 4.0 64 2.9 N 20 28 11 15 1020.5 1020.4 0.0
26/02:00am 11.2 5.6 3.7 60 3.3 N 22 30 12 16 1020.7 1020.6 0.0
26/01:30am 11.7 5.4 3.5 57 3.6 N 26 35 14 19 1020.8 1020.7 0.0
26/01:00am 11.8 5.8 3.3 56 3.7 N 24 33 13 18 1021.0 1020.9 0.0
26/12:30am 11.9 5.9 3.4 56 3.7 N 24 32 13 17 1021.2 1021.1 0.0
26/12:00am 11.2 5.6 3.7 60 3.3 NNE 22 30 12 16 1021.3 1021.2 0.0
 
Date/Time
CST
Temp
°C
App
Temp
°C
Dew
Point
°C
Rel
Hum
%
Delta-T
°C
Wind Press
QNH
hPa
Press
MSL
hPa
Rain since
9am
mm
Dir  Spd
km/h
Gust
km/h
Spd
kts
Gust
kts
25/11:30pm 10.5 5.6 4.0 64 2.9 N 19 22 10 12 1021.8 1021.7 0.0
25/11:00pm 10.2 5.6 3.7 64 2.9 NNE 17 20 9 11 1022.1 1022.0 0.0
25/10:30pm 10.0 5.4 3.7 65 2.7 NNE 17 20 9 11 1022.1 1022.0 0.0
25/10:00pm 11.0 4.7 3.8 61 3.2 NNE 26 35 14 19 1021.9 1021.8 0.0
25/09:30pm 11.0 4.9 4.9 66 2.8 N 26 33 14 18 1021.9 1021.8 0.0
25/09:00pm 7.4 6.0 5.4 87 0.9 SW 2 7 1 4 1021.3 1021.2 0.0
25/08:30pm 7.4 5.0 5.4 87 0.9 ESE 7 9 4 5 1020.6 1020.5 0.0
25/08:00pm 7.6 4.8 5.2 85 1.1 ENE 9 11 5 6 1020.8 1020.7 0.0
25/07:30pm 9.2 6.6 6.1 81 1.4 NE 9 11 5 6 1020.9 1020.8 0.0
25/07:00pm 9.2 6.6 6.3 82 1.3 ENE 9 13 5 7 1021.3 1021.2 0.0
25/06:30pm 9.6 7.9 6.1 79 1.6 NW 4 7 2 4 1021.3 1021.2 0.0
25/06:00pm 10.3 7.8 6.5 77 1.8 WNW 9 11 5 6 1021.6 1021.5 0.0
25/05:30pm 10.9 8.4 6.6 75 2.0 WNW 9 9 5 5 1021.6 1021.5 0.0
25/05:00pm 12.1 9.7 6.8 70 2.5 W 9 11 5 6 1021.4 1021.3 0.0
25/04:30pm 12.9 11.8 5.3 60 3.5 CALM 0 4 0 2 1021.1 1021.0 0.0
25/04:00pm 13.9 11.2 5.8 58 3.8 NW 9 11 5 6 1021.7 1021.6 0.0
25/03:30pm 13.6 10.5 5.5 58 3.8 NW 11 13 6 7 1022.0 1021.9 0.0
25/03:00pm 14.3 11.5 5.1 54 4.3 NNW 9 15 5 8 1022.2 1022.1 0.0

Other formats

Comma delimited format used in spreadsheet applications
http://www.bom.gov.au/fwo/IDS60801/IDS60801.99749.axf

JavaScript Object Notation format (JSON) in row-major order
http://www.bom.gov.au/fwo/IDS60801/IDS60801.99749.json

Data quality

Most of these data are generated automatically and are frequently updated. Quality checks on data are not normally performed. It is possible for incorrect values to appear. Refer to information at About Latest Weather Observations and please check the disclaimer before using these data.